Time;durP1;ratioP1;P1;durP2;ratioP2;P2;SDS_P1;SDS_P2;PMS_P1;PMS_P2;Temp;Humidity;BMP_temperature;BMP_pressure;BME280_temperature;BME280_humidity;BME280_pressure;Samples;Min_cycle;Max_cycle;Signal;HPM_P1;HPM_P2
2021/05/10 00:01:00;;;;;;;11.32;6.82;;;;;;;19.46;59.38;99862.38;4954292;28;20438;-54
2021/05/10 00:03:27;;;;;;;9.77;6.15;;;;;;;19.51;59.16;99862.97;4954510;28;20055;-53
2021/05/10 00:05:55;;;;;;;8.30;5.28;;;;;;;19.54;59.11;99865.00;4953203;29;20128;-52
2021/05/10 00:08:23;;;;;;;9.32;5.38;;;;;;;19.55;59.11;99860.28;4954269;28;20055;-52
2021/05/10 00:10:50;;;;;;;8.32;5.10;;;;;;;19.54;58.96;99859.50;4953971;28;20127;-51
2021/05/10 00:13:19;;;;;;;11.30;5.38;;;;;;;19.52;59.02;99847.97;4954428;28;20044;-53
2021/05/10 00:15:47;;;;;;;10.57;5.78;;;;;;;19.46;58.96;99843.88;4953811;28;20094;-51
2021/05/10 00:18:15;;;;;;;8.95;5.35;;;;;;;19.40;59.12;99842.50;4954143;28;20054;-51
2021/05/10 00:20:43;;;;;;;9.55;5.70;;;;;;;19.36;59.54;99839.66;4953047;29;20051;-52
2021/05/10 00:23:12;;;;;;;9.85;5.60;;;;;;;19.35;59.52;99834.47;4953942;28;20503;-51
2021/05/10 00:25:40;;;;;;;8.65;5.70;;;;;;;19.32;59.89;99835.97;4954157;28;20047;-51
2021/05/10 00:28:21;;;;;;;9.10;5.75;;;;;;;19.32;60.00;99838.75;4954299;28;20050;-53
2021/05/10 00:30:49;;;;;;;12.95;7.68;;;;;;;19.33;59.52;99847.81;4954087;28;20059;-52
2021/05/10 00:33:16;;;;;;;9.05;6.03;;;;;;;19.34;59.78;99849.44;4954290;28;20039;-53
2021/05/10 00:35:43;;;;;;;9.82;5.65;;;;;;;19.34;60.06;99838.41;4954177;28;20051;-54
2021/05/10 00:38:10;;;;;;;9.15;6.05;;;;;;;19.33;60.09;99823.75;4946017;28;20494;-52
2021/05/10 00:40:38;;;;;;;15.23;6.10;;;;;;;19.31;60.16;99822.50;4952562;28;20075;-53
2021/05/10 00:43:06;;;;;;;12.55;5.80;;;;;;;19.23;60.80;99815.19;4953706;28;20039;-51
2021/05/10 00:45:33;;;;;;;8.70;5.70;;;;;;;19.15;61.18;99815.00;4953589;28;20051;-53
2021/05/10 00:48:02;;;;;;;10.30;5.53;;;;;;;19.11;61.40;99807.75;4953971;28;20058;-51
2021/05/10 00:50:29;;;;;;;11.35;5.85;;;;;;;19.07;61.73;99802.13;4952616;29;20043;-52
2021/05/10 00:52:56;;;;;;;10.25;5.47;;;;;;;19.02;61.60;99801.56;4953755;28;20490;-52
2021/05/10 00:55:24;;;;;;;9.68;5.40;;;;;;;18.98;62.10;99803.41;4953719;28;20043;-53
2021/05/10 00:57:52;;;;;;;9.35;5.63;;;;;;;18.94;62.10;99804.13;4968602;28;20043;-51
2021/05/10 01:00:28;;;;;;;10.73;5.80;;;;;;;18.91;62.41;99801.25;4967646;28;20047;-51
2021/05/10 01:03:27;;;;;;;10.30;6.72;;;;;;;18.94;61.64;99815.16;4953239;28;20413;-52
2021/05/10 01:05:54;;;;;;;12.98;6.32;;;;;;;18.98;61.76;99807.00;4953686;28;20490;-55
2021/05/10 01:08:21;;;;;;;11.75;5.43;;;;;;;19.03;61.04;99808.72;4953626;28;20126;-54
2021/05/10 01:10:49;;;;;;;10.98;5.45;;;;;;;19.02;59.96;99802.34;4953551;28;20056;-53
2021/05/10 01:13:16;;;;;;;9.88;5.82;;;;;;;19.01;60.30;99799.97;4953828;28;20517;-52
2021/05/10 01:15:51;;;;;;;10.27;5.63;;;;;;;18.99;60.42;99792.03;4968395;28;20576;-52
2021/05/10 01:18:19;;;;;;;8.52;5.85;;;;;;;18.98;60.46;99782.16;4953698;28;20058;-52
2021/05/10 01:20:48;;;;;;;10.75;6.10;;;;;;;18.98;61.17;99779.38;4953073;28;20067;-51
2021/05/10 01:23:16;;;;;;;10.20;6.13;;;;;;;18.96;61.48;99784.44;4955673;28;20510;-51
2021/05/10 01:25:45;;;;;;;12.05;6.15;;;;;;;18.92;61.70;99780.78;4957249;28;20441;-51
2021/05/10 01:28:12;;;;;;;10.30;5.78;;;;;;;18.88;61.69;99777.09;4956216;29;20446;-52
2021/05/10 01:30:42;;;;;;;9.35;5.40;;;;;;;18.86;60.96;99771.16;4971635;28;20139;-53
2021/05/10 01:33:10;;;;;;;11.25;4.85;;;;;;;18.85;60.97;99772.28;4957149;28;20044;-51
2021/05/10 01:35:43;;;;;;;9.02;4.45;;;;;;;18.85;60.28;99770.31;4956392;28;20911;-52
2021/05/10 01:38:11;;;;;;;10.35;5.75;;;;;;;18.84;60.65;99770.69;4972284;28;20102;-55
2021/05/10 01:40:38;;;;;;;8.00;4.90;;;;;;;18.83;60.78;99775.41;4956953;28;20047;-53
2021/05/10 01:43:06;;;;;;;10.43;4.70;;;;;;;18.81;61.04;99779.66;4955892;29;20094;-53
2021/05/10 01:45:35;;;;;;;9.30;4.95;;;;;;;18.77;59.49;99776.78;4956869;28;20043;-53
2021/05/10 01:48:08;;;;;;;9.57;5.00;;;;;;;18.78;59.41;99783.13;4956641;28;20066;-53
2021/05/10 01:50:36;;;;;;;7.93;4.82;;;;;;;18.77;59.98;99767.72;4956762;28;20039;-52
2021/05/10 01:53:05;;;;;;;7.97;4.53;;;;;;;18.74;59.43;99767.22;4956648;28;20059;-56
2021/05/10 01:55:32;;;;;;;9.73;4.85;;;;;;;18.72;59.60;99764.00;4956967;28;20090;-52
2021/05/10 01:58:01;;;;;;;7.03;4.65;;;;;;;18.72;59.59;99764.00;4956589;28;20043;-51
2021/05/10 02:00:30;;;;;;;8.55;4.32;;;;;;;18.74;59.68;99761.72;4956446;28;20051;-52
2021/05/10 02:03:06;;;;;;;7.78;4.60;;;;;;;18.79;59.12;99751.63;4956729;28;20043;-52
2021/05/10 02:05:33;;;;;;;7.70;4.35;;;;;;;18.78;59.05;99750.00;4943784;29;20059;-50
2021/05/10 02:08:02;;;;;;;7.95;4.40;;;;;;;18.77;59.15;99738.16;4956840;28;20051;-51
2021/05/10 02:10:38;;;;;;;11.10;4.95;;;;;;;18.74;59.34;99750.66;4956084;28;20463;-52
2021/05/10 02:13:07;;;;;;;10.30;4.77;;;;;;;18.73;59.35;99742.72;4956815;28;20039;-52
2021/05/10 02:15:41;;;;;;;8.30;4.85;;;;;;;18.70;59.15;99733.19;4956012;28;20524;-54
2021/05/10 02:18:10;;;;;;;7.53;4.57;;;;;;;18.70;59.54;99729.66;4956336;28;20086;-52
2021/05/10 02:20:37;;;;;;;10.77;4.90;;;;;;;18.66;59.50;99714.94;4970708;28;20099;-54
2021/05/10 02:23:12;;;;;;;8.02;4.65;;;;;;;18.65;59.67;99721.63;4956278;28;20130;-55
2021/05/10 02:25:47;;;;;;;8.60;4.93;;;;;;;18.62;60.59;99719.56;4956120;28;20039;-56
2021/05/10 02:28:16;;;;;;;7.93;4.97;;;;;;;18.57;61.10;99717.03;4956292;28;20047;-52
2021/05/10 02:30:43;;;;;;;9.20;4.60;;;;;;;18.51;61.28;99713.72;4955901;28;20047;-55
2021/05/10 02:33:13;;;;;;;14.90;5.72;;;;;;;18.46;61.50;99711.19;4955548;28;20074;-55
2021/05/10 02:35:40;;;;;;;8.65;4.78;;;;;;;18.44;61.25;99719.81;4955848;28;20051;-55
2021/05/10 02:38:08;;;;;;;8.75;4.50;;;;;;;18.44;59.30;99713.50;4956150;28;20051;-53
2021/05/10 02:40:36;;;;;;;7.32;3.90;;;;;;;18.45;58.10;99713.16;4955631;28;20066;-54
2021/05/10 02:43:04;;;;;;;6.47;3.65;;;;;;;18.51;57.17;99716.47;4956251;28;20039;-54
2021/05/10 02:45:31;;;;;;;6.35;3.30;;;;;;;18.57;54.66;99709.56;4955910;28;20459;-54
2021/05/10 02:47:59;;;;;;;6.72;2.88;;;;;;;18.64;53.12;99714.47;4955311;28;20098;-54
2021/05/10 02:50:27;;;;;;;6.63;3.00;;;;;;;18.70;53.02;99705.59;4970492;28;20126;-55
2021/05/10 02:53:14;;;;;;;5.97;2.67;;;;;;;18.77;51.34;99704.25;4954524;29;20043;-55
2021/05/10 02:55:42;;;;;;;4.72;2.58;;;;;;;18.82;51.15;99706.75;4955949;28;20130;-55
2021/05/10 02:58:09;;;;;;;6.65;2.47;;;;;;;18.86;50.98;99707.66;4955345;28;20039;-50
2021/05/10 03:00:37;;;;;;;6.78;2.65;;;;;;;18.90;49.86;99697.50;4955845;28;20102;-49
2021/05/10 03:03:04;;;;;;;5.15;2.50;;;;;;;18.92;49.71;99701.53;4954985;28;20109;-49
2021/05/10 03:05:31;;;;;;;7.22;2.88;;;;;;;18.96;49.16;99704.41;4955741;28;20454;-50
2021/05/10 03:07:58;;;;;;;7.45;2.35;;;;;;;18.99;49.08;99694.59;4970397;28;20059;-49
2021/05/10 03:10:25;;;;;;;5.20;2.30;;;;;;;19.00;49.15;99696.19;4955060;28;20039;-50
2021/05/10 03:12:54;;;;;;;9.60;2.60;;;;;;;19.02;48.23;99700.22;4955744;28;20052;-49
2021/05/10 03:15:22;;;;;;;3.95;2.40;;;;;;;19.05;48.60;99705.06;4955429;28;20493;-50
2021/05/10 03:17:51;;;;;;;6.38;2.30;;;;;;;19.07;47.84;99702.75;4954776;28;20074;-51
2021/05/10 03:20:20;;;;;;;4.57;2.20;;;;;;;19.09;48.11;99705.94;4955014;28;20054;-52
2021/05/10 03:22:52;;;;;;;8.55;2.55;;;;;;;19.15;47.37;99710.06;4955302;28;20098;-52
2021/05/10 03:25:21;;;;;;;3.20;2.00;;;;;;;19.16;47.65;99703.38;4969389;28;20078;-51
2021/05/10 03:27:51;;;;;;;4.43;2.30;;;;;;;19.19;47.43;99706.56;4955006;28;20055;-55
2021/05/10 03:30:21;;;;;;;5.10;2.30;;;;;;;19.19;47.38;99712.09;4954749;28;20047;-55
2021/05/10 03:32:49;;;;;;;3.47;2.20;;;;;;;19.22;47.37;99714.16;4954535;28;20098;-52
2021/05/10 03:35:17;;;;;;;6.78;2.13;;;;;;;19.22;47.30;99697.59;4954858;28;20070;-53
2021/05/10 03:37:44;;;;;;;5.65;2.30;;;;;;;19.23;46.82;99715.78;4954796;28;20126;-51
2021/05/10 03:40:16;;;;;;;4.63;2.13;;;;;;;19.25;47.09;99716.22;4954997;28;20054;-52
2021/05/10 03:42:45;;;;;;;4.45;2.13;;;;;;;19.25;46.74;99707.94;4954957;28;20051;-53
2021/05/10 03:45:14;;;;;;;6.93;2.22;;;;;;;19.25;46.72;99716.22;4954079;28;20047;-52
2021/05/10 03:47:42;;;;;;;5.93;2.17;;;;;;;19.25;46.61;99721.75;4954326;28;20055;-54
2021/05/10 03:50:18;;;;;;;6.20;2.25;;;;;;;19.25;46.68;99719.00;4955489;28;20487;-54
2021/05/10 03:52:46;;;;;;;2.13;1.90;;;;;;;19.24;46.49;99722.88;4955460;28;20054;-51
2021/05/10 03:55:15;;;;;;;4.85;2.20;;;;;;;19.25;46.31;99719.00;4954917;28;20113;-53
2021/05/10 03:57:43;;;;;;;4.18;2.13;;;;;;;19.29;46.34;99717.09;4954402;28;20106;-56
2021/05/10 04:00:11;;;;;;;5.82;2.20;;;;;;;19.30;46.62;99708.47;4954313;28;20048;-50
2021/05/10 04:02:39;;;;;;;4.20;2.05;;;;;;;19.31;46.49;99709.28;4954516;28;20051;-53
2021/05/10 04:07:56;;;;;;;3.60;2.10;;;;;;;19.34;45.97;99722.41;4954227;28;20101;-53
2021/05/10 04:15:37;;;;;;;3.30;2.15;;;;;;;19.35;46.16;99719.25;4953828;28;20122;-52
2021/05/10 04:18:04;;;;;;;6.43;2.08;;;;;;;19.36;46.32;99717.28;4954230;28;20055;-53
2021/05/10 04:20:31;;;;;;;2.60;1.83;;;;;;;19.39;46.30;99713.03;4953856;28;20039;-52
2021/05/10 04:22:59;;;;;;;2.83;1.73;;;;;;;19.40;46.30;99726.47;4954414;28;20039;-52
2021/05/10 04:25:26;;;;;;;5.53;2.45;;;;;;;19.41;46.43;99747.44;4954051;28;20051;-53
2021/05/10 04:27:54;;;;;;;8.13;2.40;;;;;;;19.44;47.14;99732.91;4954072;28;20047;-52
2021/05/10 04:30:21;;;;;;;6.68;2.50;;;;;;;19.42;46.35;99757.31;4953347;28;20564;-53
2021/05/10 04:32:49;;;;;;;5.68;2.20;;;;;;;19.42;46.13;99751.81;4953924;28;20058;-51
2021/05/10 04:35:18;;;;;;;6.15;2.20;;;;;;;19.40;46.33;99759.63;4954233;28;20051;-54
2021/05/10 04:37:45;;;;;;;4.45;2.15;;;;;;;19.41;46.19;99772.31;4953820;28;20059;-53
2021/05/10 04:40:13;;;;;;;6.15;2.60;;;;;;;19.44;46.21;99790.94;4954036;28;20098;-51
2021/05/10 04:42:40;;;;;;;4.82;2.35;;;;;;;19.46;47.07;99796.09;4968914;28;20054;-52
2021/05/10 04:45:08;;;;;;;5.13;2.30;;;;;;;19.48;47.35;99805.66;4953684;28;20047;-54
2021/05/10 04:47:38;;;;;;;6.13;2.50;;;;;;;19.45;48.32;99820.16;4953982;28;20094;-52
2021/05/10 04:50:10;;;;;;;9.00;2.58;;;;;;;19.40;50.20;99825.94;4953775;28;20050;-51
2021/05/10 04:52:38;;;;;;;11.52;2.53;;;;;;;19.36;50.65;99833.31;4953069;29;20043;-53
2021/05/10 04:55:07;;;;;;;11.02;2.38;;;;;;;19.31;50.40;99822.50;4953551;28;20106;-50
2021/05/10 04:57:34;;;;;;;6.25;2.45;;;;;;;19.29;50.30;99819.28;4954265;28;20039;-50
2021/05/10 05:00:01;;;;;;;9.20;2.58;;;;;;;19.23;51.18;99813.22;4957550;28;20510;-52
2021/05/10 05:02:28;;;;;;;12.75;2.90;;;;;;;19.15;52.41;99812.22;4972896;28;20053;-53
2021/05/10 05:04:57;;;;;;;13.82;3.03;;;;;;;19.08;52.22;99803.72;4957658;28;20425;-51
2021/05/10 05:07:24;;;;;;;5.25;2.40;;;;;;;19.11;51.83;99805.78;4957881;28;20450;-50
2021/05/10 05:09:52;;;;;;;9.43;2.40;;;;;;;19.12;51.89;99806.59;4956950;28;20454;-51
2021/05/10 05:12:19;;;;;;;11.85;2.60;;;;;;;19.09;52.55;99802.56;4957961;28;20040;-50
2021/05/10 05:14:46;;;;;;;11.23;2.65;;;;;;;19.08;52.69;99800.97;4957378;28;20514;-52
2021/05/10 05:17:13;;;;;;;4.28;2.40;;;;;;;19.16;51.09;99810.25;4957457;28;20062;-52
2021/05/10 05:19:40;;;;;;;5.68;2.17;;;;;;;19.18;50.16;99824.53;4957247;28;20106;-51
2021/05/10 05:22:08;;;;;;;8.52;2.20;;;;;;;19.16;51.08;99835.91;4957416;28;20050;-51
2021/05/10 05:24:35;;;;;;;6.05;2.13;;;;;;;19.15;51.14;99850.88;4957493;28;20494;-51
2021/05/10 05:27:03;;;;;;;5.97;1.92;;;;;;;19.20;50.95;99907.03;4956801;28;20533;-51
2021/05/10 05:29:30;;;;;;;4.35;2.35;;;;;;;19.25;49.32;99923.34;4957135;28;20052;-52
2021/05/10 05:31:59;;;;;;;5.13;1.95;;;;;;;19.28;50.64;99940.03;4955778;28;20506;-52
2021/05/10 05:34:26;;;;;;;8.20;2.03;;;;;;;19.25;51.16;99939.94;4955798;28;20051;-54
2021/05/10 05:36:54;;;;;;;6.65;2.60;;;;;;;19.20;52.17;99951.22;4955924;28;20054;-51
2021/05/10 05:39:21;;;;;;;5.85;2.00;;;;;;;19.18;51.56;99964.56;4955905;28;20479;-54
2021/05/10 05:41:50;;;;;;;10.93;2.20;;;;;;;19.17;51.61;99949.97;4955529;28;20509;-54
2021/05/10 05:44:17;;;;;;;4.97;1.90;;;;;;;19.14;52.93;99968.00;4955941;28;20035;-53
2021/05/10 05:46:49;;;;;;;4.53;2.40;;;;;;;19.12;53.43;99986.91;4956116;28;20139;-54
2021/05/10 05:49:17;;;;;;;5.97;2.20;;;;;;;19.02;54.43;99992.06;4956174;28;20125;-53
2021/05/10 05:51:47;;;;;;;6.07;2.50;;;;;;;18.95;52.30;99984.34;4955393;28;20047;-52
2021/05/10 05:54:15;;;;;;;5.82;1.92;;;;;;;18.87;54.24;99993.56;4260039;28;10000749;-54
2021/05/10 05:56:42;;;;;;;6.15;2.13;;;;;;;18.89;53.76;99999.53;4951384;29;20123;-52
2021/05/10 05:59:09;;;;;;;6.85;2.00;;;;;;;18.86;53.62;100014.84;4953513;28;20043;-52
2021/05/10 06:01:36;;;;;;;2.92;1.80;;;;;;;18.92;52.37;100009.88;4953021;28;20047;-50
2021/05/10 06:04:04;;;;;;;4.53;1.60;;;;;;;18.87;53.87;100015.63;4953539;28;20498;-50
2021/05/10 06:06:31;;;;;;;2.50;1.30;;;;;;;18.82;53.23;100019.44;4952888;28;20532;-51
2021/05/10 06:08:59;;;;;;;3.72;1.95;;;;;;;18.98;52.19;100022.34;4967586;28;20406;-52
2021/05/10 06:11:26;;;;;;;8.45;1.83;;;;;;;19.10;52.10;100040.84;4952708;28;20067;-52
2021/05/10 06:13:53;;;;;;;5.47;1.23;;;;;;;19.05;52.35;100047.41;4953262;28;20497;-49
2021/05/10 06:16:20;;;;;;;3.28;1.88;;;;;;;19.12;51.75;100047.66;4967986;28;20059;-51
2021/05/10 06:18:47;;;;;;;2.50;1.55;;;;;;;19.07;52.09;100036.84;4952455;28;20062;-52
2021/05/10 06:21:14;;;;;;;5.63;1.85;;;;;;;19.14;51.24;100053.59;4953210;28;20129;-53
2021/05/10 06:23:42;;;;;;;2.95;1.80;;;;;;;19.13;51.16;100032.69;4953049;28;20055;-52
2021/05/10 06:26:09;;;;;;;6.85;2.05;;;;;;;19.19;51.70;100029.69;4952541;28;20150;-52
2021/05/10 06:28:36;;;;;;;2.22;1.35;;;;;;;19.22;51.92;100040.03;4953153;28;20043;-50
2021/05/10 06:31:04;;;;;;;4.93;1.42;;;;;;;19.14;52.09;100039.00;4932745;29;561192;-52
2021/05/10 06:33:32;;;;;;;1.38;1.15;;;;;;;19.06;51.99;100037.16;4953911;28;20158;-53
2021/05/10 06:35:59;;;;;;;2.80;1.80;;;;;;;19.21;51.16;100030.16;4953734;28;20035;-53
2021/05/10 06:38:26;;;;;;;2.45;1.40;;;;;;;19.26;50.97;100040.97;4954143;28;20062;-52
2021/05/10 06:40:53;;;;;;;4.15;1.80;;;;;;;19.14;51.35;100066.63;4952654;28;20043;-52
2021/05/10 06:43:20;;;;;;;2.83;1.75;;;;;;;19.03;51.68;100071.00;4968710;28;20051;-51
2021/05/10 06:45:48;;;;;;;3.55;1.58;;;;;;;18.95;52.44;100067.16;4953465;28;20742;-52
2021/05/10 06:48:29;;;;;;;3.50;1.77;;;;;;;18.97;51.88;100069.59;4968595;28;20051;-52
2021/05/10 06:50:57;;;;;;;3.90;1.80;;;;;;;18.88;52.30;100058.63;4953879;28;20102;-51
2021/05/10 06:53:25;;;;;;;4.63;1.60;;;;;;;18.83;52.56;100067.97;4953133;28;20180;-54
2021/05/10 06:55:53;;;;;;;5.43;1.60;;;;;;;18.94;52.01;100082.13;4953042;28;20055;-51
2021/05/10 06:58:21;;;;;;;5.80;1.77;;;;;;;19.05;51.79;100097.13;4952071;29;20067;-53
2021/05/10 07:00:51;;;;;;;3.85;1.60;;;;;;;18.99;51.84;100109.50;4953689;28;20050;-50
2021/05/10 07:03:19;;;;;;;3.35;1.70;;;;;;;18.86;52.29;100107.88;4953335;28;20051;-49
2021/05/10 07:05:49;;;;;;;6.68;1.98;;;;;;;18.86;52.49;100099.59;4952987;28;20126;-50
2021/05/10 07:08:17;;;;;;;6.72;2.00;;;;;;;18.87;52.09;100106.72;4953145;29;20081;-51
2021/05/10 07:10:48;;;;;;;4.07;2.10;;;;;;;19.02;51.63;100106.06;4952809;28;20490;-51
2021/05/10 07:13:15;;;;;;;4.47;2.00;;;;;;;19.06;52.04;100104.22;4953172;28;20043;-51
2021/05/10 07:15:42;;;;;;;3.85;1.65;;;;;;;19.12;52.02;100113.91;4952952;28;20065;-51
2021/05/10 07:18:11;;;;;;;3.38;1.77;;;;;;;19.16;52.20;100116.78;4953000;28;20581;-51
2021/05/10 07:20:40;;;;;;;1.98;1.50;;;;;;;19.11;51.91;100115.06;4952162;28;20047;-51
2021/05/10 07:23:08;;;;;;;3.97;2.00;;;;;;;19.19;51.80;100107.00;4952486;28;20043;-51
2021/05/10 07:25:41;;;;;;;3.60;1.67;;;;;;;19.24;50.99;100104.00;4952979;28;20785;-51
2021/05/10 07:28:10;;;;;;;8.20;1.85;;;;;;;19.15;51.16;100113.22;4953703;28;20043;-52
2021/05/10 07:30:37;;;;;;;5.13;1.77;;;;;;;19.13;51.86;100125.78;4949699;29;20055;-51
2021/05/10 07:33:05;;;;;;;4.72;1.55;;;;;;;19.18;51.39;100124.75;4952404;28;20034;-51
2021/05/10 07:35:32;;;;;;;7.03;1.95;;;;;;;19.09;52.46;100150.47;4952557;28;20047;-54
2021/05/10 07:38:00;;;;;;;3.35;1.20;;;;;;;19.01;52.28;100167.16;4951942;28;20129;-51
2021/05/10 07:40:28;;;;;;;4.78;1.75;;;;;;;19.08;51.42;100151.66;4952463;28;20109;-51
2021/05/10 07:42:56;;;;;;;4.85;2.00;;;;;;;19.01;52.91;100162.44;4952102;28;20078;-53
2021/05/10 07:45:23;;;;;;;4.75;2.20;;;;;;;19.03;52.69;100170.41;4952592;28;20643;-54
2021/05/10 07:47:55;;;;;;;3.33;1.85;;;;;;;18.99;52.47;100174.97;4952448;28;20055;-51
2021/05/10 07:50:24;;;;;;;4.03;2.00;;;;;;;19.05;51.70;100173.59;4953509;28;20087;-54
2021/05/10 07:52:52;;;;;;;11.90;2.80;;;;;;;19.13;51.91;100181.78;4953893;28;20371;-52
2021/05/10 07:55:19;;;;;;;6.72;2.60;;;;;;;19.03;52.48;100198.00;4954586;28;20077;-54
2021/05/10 07:57:47;;;;;;;11.85;2.70;;;;;;;18.87;52.38;100189.53;4954357;28;20125;-55
2021/05/10 08:00:22;;;;;;;5.85;2.60;;;;;;;18.78;52.96;100186.06;4954283;28;20051;-55
2021/05/10 08:02:53;;;;;;;7.57;2.33;;;;;;;18.69;54.32;100189.69;4954355;28;20129;-51
2021/05/10 08:05:20;;;;;;;10.02;3.50;;;;;;;18.67;54.24;100180.94;4954207;28;20526;-49
2021/05/10 08:07:49;;;;;;;10.27;3.95;;;;;;;18.61;53.84;100179.50;4953995;28;20047;-49
2021/05/10 08:10:16;;;;;;;12.93;5.38;;;;;;;18.63;54.30;100188.25;4953867;28;20094;-49
2021/05/10 08:12:43;;;;;;;8.40;3.28;;;;;;;18.60;54.70;100188.94;4954324;28;20102;-48
2021/05/10 08:15:11;;;;;;;16.13;5.22;;;;;;;18.57;54.40;100197.91;4953923;28;20106;-49
2021/05/10 08:17:38;;;;;;;9.88;4.55;;;;;;;18.56;54.91;100200.97;4954075;28;20064;-47
2021/05/10 08:20:06;;;;;;;21.65;6.13;;;;;;;18.51;54.65;100199.22;4952055;28;20074;-53
2021/05/10 08:22:33;;;;;;;20.27;6.50;;;;;;;18.47;54.46;100204.63;4953883;28;20083;-51
2021/05/10 08:25:03;;;;;;;14.85;5.38;;;;;;;18.51;54.63;100208.31;4953921;28;20446;-51
2021/05/10 08:27:34;;;;;;;26.70;9.18;;;;;;;18.74;53.48;100219.81;4954102;29;20039;-52
2021/05/10 08:30:04;;;;;;;16.17;6.25;;;;;;;18.67;53.66;100227.03;4953968;28;20474;-48
2021/05/10 08:32:31;;;;;;;20.80;6.82;;;;;;;18.68;53.60;100229.44;4953899;28;20047;-51
2021/05/10 08:35:00;;;;;;;22.52;7.60;;;;;;;18.64;53.35;100231.28;4953633;28;20398;-48
2021/05/10 08:37:28;;;;;;;21.98;6.22;;;;;;;18.69;53.42;100235.78;4953538;28;20043;-50
2021/05/10 08:39:59;;;;;;;13.75;4.68;;;;;;;18.72;53.48;100238.66;4953664;28;20039;-50
2021/05/10 08:42:27;;;;;;;17.98;7.20;;;;;;;18.87;52.71;100245.56;4953875;28;20043;-52
2021/05/10 08:44:54;;;;;;;26.67;7.05;;;;;;;18.86;52.67;100248.66;4952705;28;20063;-51
2021/05/10 08:47:22;;;;;;;16.52;5.95;;;;;;;18.79;53.01;100251.97;4952617;28;20577;-51
2021/05/10 08:49:50;;;;;;;10.00;4.47;;;;;;;18.65;53.21;100260.47;4953340;28;20055;-52
2021/05/10 08:52:17;;;;;;;15.05;4.47;;;;;;;18.52;53.51;100272.59;4953482;28;20059;-50
2021/05/10 08:54:44;;;;;;;11.48;3.85;;;;;;;18.44;53.84;100295.50;4953921;28;20047;-53
2021/05/10 08:57:12;;;;;;;13.90;4.50;;;;;;;18.38;54.35;100288.59;4953703;28;20410;-55
2021/05/10 08:59:42;;;;;;;14.65;5.45;;;;;;;18.36;54.18;100293.63;4953313;28;20083;-55
2021/05/10 09:02:10;;;;;;;17.10;5.68;;;;;;;18.39;54.80;100307.53;4953539;28;20047;-53
2021/05/10 09:04:39;;;;;;;21.63;5.15;;;;;;;18.38;55.17;100321.69;4968161;28;20143;-51
2021/05/10 09:07:24;;;;;;;9.55;3.47;;;;;;;18.36;55.55;100318.44;4968086;28;20055;-55
2021/05/10 09:10:00;;;;;;;10.65;3.28;;;;;;;18.28;56.36;100312.66;4953084;28;20105;-56
2021/05/10 09:12:48;;;;;;;7.70;2.70;;;;;;;18.21;56.95;100319.84;4953479;28;20051;-54
2021/05/10 09:15:19;;;;;;;7.28;2.60;;;;;;;18.16;57.35;100315.31;4953129;28;20074;-53
2021/05/10 09:17:48;;;;;;;11.40;4.03;;;;;;;18.19;56.78;100311.88;4953392;28;20118;-56
2021/05/10 09:20:25;;;;;;;10.68;3.45;;;;;;;18.30;56.19;100315.06;4952910;28;20052;-54
2021/05/10 09:22:55;;;;;;;9.45;3.30;;;;;;;18.33;56.26;100316.34;4953535;28;20051;-54
2021/05/10 09:25:45;;;;;;;8.68;3.42;;;;;;;18.33;55.67;100313.59;4953404;28;20044;-53
2021/05/10 09:28:17;;;;;;;21.70;6.28;;;;;;;18.34;54.97;100310.50;4953397;28;20521;-54
2021/05/10 09:31:04;;;;;;;16.25;5.05;;;;;;;18.47;54.41;100311.38;4953069;28;20470;-52
2021/05/10 09:33:50;;;;;;;11.50;4.40;;;;;;;18.48;54.23;100318.53;4952660;29;20039;-50
2021/05/10 09:36:37;;;;;;;12.85;5.35;;;;;;;18.60;53.49;100329.66;4953954;28;20063;-53
2021/05/10 09:39:07;;;;;;;17.95;5.00;;;;;;;18.70;53.70;100351.34;4953312;28;20039;-51
2021/05/10 09:42:02;;;;;;;13.23;4.53;;;;;;;18.80;52.91;100347.41;4953487;28;20482;-52
2021/05/10 09:44:43;;;;;;;8.18;3.10;;;;;;;18.71;54.36;100344.69;4955073;28;20043;-51
2021/05/10 09:47:10;;;;;;;7.47;2.85;;;;;;;18.46;55.93;100351.16;4956740;28;20530;-54
2021/05/10 09:49:48;;;;;;;8.25;3.00;;;;;;;18.34;56.30;100360.16;4956079;28;20051;-54
2021/05/10 09:52:20;;;;;;;4.18;2.47;;;;;;;18.26;56.72;100364.56;4956753;28;20047;-54
2021/05/10 09:54:55;;;;;;;11.73;3.78;;;;;;;18.26;56.39;100374.78;4956938;28;20486;-52
2021/05/10 09:57:22;;;;;;;10.48;3.80;;;;;;;18.37;55.13;100380.75;4955733;28;20050;-53
2021/05/10 10:00:20;;;;;;;11.00;3.60;;;;;;;18.49;54.09;100389.13;4956525;28;20497;-52
2021/05/10 10:02:48;;;;;;;11.18;4.20;;;;;;;18.50;54.39;100380.53;4956199;28;20055;-53
2021/05/10 10:05:17;;;;;;;11.60;3.95;;;;;;;18.57;54.67;100390.22;4956159;28;20035;-53
2021/05/10 10:07:44;;;;;;;9.35;3.53;;;;;;;18.56;55.18;100394.94;4956713;28;20580;-51
2021/05/10 10:10:13;;;;;;;10.25;3.78;;;;;;;18.59;54.83;100398.97;4956092;28;20549;-51
2021/05/10 10:12:40;;;;;;;6.50;3.00;;;;;;;18.58;55.19;100398.16;4956797;28;20047;-51
2021/05/10 10:15:07;;;;;;;11.35;3.80;;;;;;;18.59;54.34;100405.31;4971213;28;20442;-49
2021/05/10 10:17:34;;;;;;;12.57;4.00;;;;;;;18.66;55.05;100410.28;4955875;28;20418;-53
2021/05/10 10:20:06;;;;;;;9.75;3.13;;;;;;;18.61;55.29;100408.53;4955954;28;20415;-53
2021/05/10 10:22:34;;;;;;;6.60;2.95;;;;;;;18.59;54.98;100410.00;4970496;28;20098;-50
2021/05/10 10:25:05;;;;;;;7.03;3.03;;;;;;;18.60;54.99;100406.91;4956144;28;20406;-52
2021/05/10 10:27:52;;;;;;;9.18;3.47;;;;;;;18.65;54.47;100415.00;4955164;28;20090;-51
2021/05/10 10:30:21;;;;;;;7.82;3.33;;;;;;;18.65;55.07;100426.06;4970576;28;20525;-51
2021/05/10 10:32:50;;;;;;;10.43;4.28;;;;;;;18.60;55.03;100423.47;4954326;29;20086;-50
2021/05/10 10:35:33;;;;;;;7.45;2.67;;;;;;;18.51;55.47;100414.44;4969220;28;20047;-50
2021/05/10 10:38:02;;;;;;;7.35;3.17;;;;;;;18.46;56.05;100415.41;4970805;28;20122;-51
2021/05/10 10:40:29;;;;;;;6.88;3.13;;;;;;;18.46;55.28;100431.16;4256660;28;10000713;-53
2021/05/10 10:43:21;;;;;;;7.40;3.00;;;;;;;18.46;55.13;100423.69;4953800;28;20106;-51
2021/05/10 10:46:24;;;;;;;12.07;3.10;;;;;;;18.54;55.14;100441.34;4953125;28;20051;-54
2021/05/10 10:48:53;;;;;;;8.45;3.08;;;;;;;18.57;54.56;100448.97;4943776;29;20043;-50
2021/05/10 10:51:20;;;;;;;5.88;2.85;;;;;;;18.54;54.66;100435.81;4953098;28;20040;-50
2021/05/10 10:53:55;;;;;;;7.93;3.28;;;;;;;18.58;54.38;100438.75;4958530;28;20044;-55
2021/05/10 10:56:48;;;;;;;9.23;3.00;;;;;;;18.75;54.04;100438.66;4958189;28;20106;-55
2021/05/10 10:59:31;;;;;;;9.63;3.03;;;;;;;18.88;53.37;100451.47;4961982;28;20039;-51
2021/05/10 11:02:26;;;;;;;6.45;2.80;;;;;;;18.86;52.28;100450.19;4958041;28;20090;-53
2021/05/10 11:05:19;;;;;;;7.70;3.15;;;;;;;18.85;53.50;100462.34;4952491;29;20130;-53
2021/05/10 11:07:58;;;;;;;7.00;2.85;;;;;;;18.68;53.38;100464.00;4953502;28;20051;-53
2021/05/10 11:10:51;;;;;;;9.05;2.92;;;;;;;18.54;52.67;100485.50;4951891;29;20058;-54
2021/05/10 11:13:40;;;;;;;8.77;2.95;;;;;;;18.46;54.18;100489.91;4953559;28;20098;-54
2021/05/10 11:16:16;;;;;;;11.25;3.25;;;;;;;18.41;53.54;100501.13;4953280;28;20043;-55
2021/05/10 11:18:47;;;;;;;;;;;;;;;18.21;54.72;100499.88;4955405;28;20101;-52
2021/05/10 11:21:24;;;;;;;5.60;2.58;;;;;;;18.06;56.04;100508.66;4955038;28;19926;-55
2021/05/10 11:23:51;;;;;;;5.90;2.50;;;;;;;17.93;56.52;100499.41;4955294;28;20054;-53
2021/05/10 11:26:38;;;;;;;5.93;2.60;;;;;;;17.96;56.50;100496.00;4955120;28;20043;-54
2021/05/10 11:29:07;;;;;;;6.28;2.70;;;;;;;17.95;56.52;100491.63;4954726;28;20043;-55
2021/05/10 11:31:37;;;;;;;5.72;2.80;;;;;;;17.95;56.71;100482.56;4954330;28;20148;-52
2021/05/10 11:34:10;;;;;;;5.88;2.70;;;;;;;18.07;56.53;100493.75;4954566;28;20557;-54
2021/05/10 11:37:07;;;;;;;6.20;2.80;;;;;;;18.20;55.68;100494.69;4955054;28;20498;-52
2021/05/10 11:39:36;;;;;;;6.05;3.05;;;;;;;18.35;55.35;100504.38;4952301;29;20069;-54
2021/05/10 11:42:09;;;;;;;7.43;3.15;;;;;;;18.40;54.46;100480.22;4952804;29;20043;-55
2021/05/10 11:44:45;;;;;;;8.68;3.03;;;;;;;18.47;54.25;100488.78;4952071;29;20059;-53
2021/05/10 11:47:30;;;;;;;8.32;3.20;;;;;;;18.55;54.04;100489.88;4952494;29;20047;-54
2021/05/10 11:50:02;;;;;;;8.05;3.28;;;;;;;18.72;52.80;100492.56;4936595;29;20058;-54